Time;durP1;ratioP1;P1;durP2;ratioP2;P2;SDS_P1;SDS_P2;PMS_P1;PMS_P2;Temp;Humidity;BMP_temperature;BMP_pressure;BME280_temperature;BME280_humidity;BME280_pressure;Samples;Min_cycle;Max_cycle;Signal;HPM_P1;HPM_P2
2021/04/25 00:01:37;;;;;;;11.82;5.80;;;7.70;62.30;;;;;;5073117;28;20056;-77
2021/04/25 00:04:03;;;;;;;11.00;5.55;;;7.70;62.30;;;;;;5090666;28;20032;-77
2021/04/25 00:06:29;;;;;;;14.02;5.68;;;7.60;62.30;;;;;;5075986;28;20051;-77
2021/04/25 00:08:55;;;;;;;12.45;5.57;;;7.60;63.00;;;;;;5093919;28;20036;-76
2021/04/25 00:11:20;;;;;;;10.38;5.53;;;7.50;62.40;;;;;;5092973;28;20488;-77
2021/04/25 00:13:47;;;;;;;12.73;6.03;;;7.50;62.60;;;;;;5075776;28;20509;-77
2021/04/25 00:16:14;;;;;;;9.90;5.47;;;7.50;62.70;;;;;;5093810;28;20530;-76
2021/04/25 00:18:41;;;;;;;9.65;5.53;;;7.40;62.80;;;;;;5093769;28;20024;-77
2021/04/25 00:21:07;;;;;;;11.02;6.00;;;7.40;63.20;;;;;;5093517;28;20492;-77
2021/04/25 00:23:33;;;;;;;11.52;6.10;;;7.30;63.20;;;;;;5093671;28;20110;-76
2021/04/25 00:25:58;;;;;;;11.38;6.10;;;7.30;63.30;;;;;;5092491;28;20115;-77
2021/04/25 00:28:24;;;;;;;13.68;5.55;;;7.30;63.30;;;;;;5093133;28;20093;-76
2021/04/25 00:30:50;;;;;;;11.25;5.78;;;7.30;63.50;;;;;;5091988;28;20123;-77
2021/04/25 00:33:16;;;;;;;12.60;5.95;;;7.30;63.50;;;;;;5093293;28;20028;-77
2021/04/25 00:35:42;;;;;;;12.82;6.15;;;7.20;63.50;;;;;;5093545;28;20107;-77
2021/04/25 00:38:08;;;;;;;11.45;6.28;;;7.20;63.80;;;;;;5092346;28;20052;-77
2021/04/25 00:40:34;;;;;;;12.45;5.65;;;7.20;63.90;;;;;;5091838;28;20057;-77
2021/04/25 00:42:59;;;;;;;16.33;6.78;;;7.10;64.00;;;;;;5093082;28;20040;-76
2021/04/25 00:45:25;;;;;;;12.65;6.40;;;7.10;64.10;;;;;;5071917;28;20123;-77
2021/04/25 00:47:51;;;;;;;12.00;6.07;;;7.10;64.20;;;;;;5084855;28;20092;-76
2021/04/25 00:50:20;;;;;;;10.98;6.00;;;7.00;64.30;;;;;;5093370;28;20012;-76
2021/04/25 00:52:47;;;;;;;12.40;5.57;;;7.00;64.60;;;;;;5091995;28;20166;-76
2021/04/25 00:55:16;;;;;;;10.50;5.68;;;6.90;64.70;;;;;;5091884;28;20063;-76
2021/04/25 00:57:43;;;;;;;8.65;5.75;;;6.90;64.90;;;;;;5091746;28;20027;-76
2021/04/25 01:00:12;;;;;;;9.82;5.65;;;6.90;65.40;;;;;;5091710;28;20545;-76
2021/04/25 01:02:38;;;;;;;14.00;6.75;;;6.80;65.40;;;;;;5091760;28;20067;-76
2021/04/25 01:05:07;;;;;;;13.80;6.45;;;6.80;65.40;;;;;;5091248;28;20420;-76
2021/04/25 01:07:32;;;;;;;12.18;6.30;;;6.80;65.60;;;;;;5092400;28;20524;-76
2021/04/25 01:09:58;;;;;;;11.48;5.78;;;6.70;65.50;;;;;;5090865;28;20150;-76
2021/04/25 01:12:24;;;;;;;12.30;6.20;;;6.70;65.70;;;;;;5091942;28;20035;-76
2021/04/25 01:14:50;;;;;;;15.23;6.30;;;6.70;65.80;;;;;;5091338;28;20036;-77
2021/04/25 01:17:16;;;;;;;11.55;5.78;;;6.70;65.90;;;;;;5091863;28;20545;-76
2021/04/25 01:19:42;;;;;;;10.73;5.97;;;6.60;66.00;;;;;;5071445;28;20485;-77
2021/04/25 01:22:08;;;;;;;10.60;5.82;;;6.60;66.10;;;;;;5091047;28;20035;-76
2021/04/25 01:24:33;;;;;;;10.90;6.18;;;6.60;66.30;;;;;;5091327;28;20452;-77
2021/04/25 01:26:59;;;;;;;14.85;7.38;;;6.60;66.50;;;;;;5091159;28;20111;-77
2021/04/25 01:29:25;;;;;;;11.95;7.03;;;6.60;66.60;;;;;;5091906;28;20028;-77
2021/04/25 01:31:51;;;;;;;14.73;6.43;;;6.50;66.60;;;;;;5092496;28;20051;-76
2021/04/25 01:34:16;;;;;;;11.88;6.72;;;6.50;67.00;;;;;;5090989;28;20032;-77
2021/04/25 01:36:42;;;;;;;16.73;7.70;;;6.50;67.20;;;;;;5092521;28;20473;-76
2021/04/25 01:39:08;;;;;;;11.43;6.93;;;6.50;67.40;;;;;;5092574;28;20081;-77
2021/04/25 01:41:33;;;;;;;12.65;7.07;;;6.50;67.30;;;;;;5054249;28;20032;-76
2021/04/25 01:44:01;;;;;;;13.35;7.65;;;6.50;67.20;;;;;;5090549;28;20040;-76
2021/04/25 01:46:27;;;;;;;13.07;7.85;;;6.40;67.40;;;;;;5091130;28;20401;-76
2021/04/25 01:48:52;;;;;;;14.88;8.23;;;6.40;67.70;;;;;;5092776;28;20039;-76
2021/04/25 01:51:18;;;;;;;16.13;8.40;;;6.30;68.20;;;;;;5070976;28;20040;-76
2021/04/25 01:53:44;;;;;;;16.08;8.77;;;6.30;68.90;;;;;;5074012;28;20024;-76
2021/04/25 01:56:09;;;;;;;17.58;8.75;;;6.20;68.40;;;;;;5091107;28;20040;-76
2021/04/25 01:58:35;;;;;;;13.68;8.48;;;6.20;68.70;;;;;;5092686;28;20044;-76
2021/04/25 02:01:01;;;;;;;15.00;8.57;;;6.20;68.60;;;;;;5091010;28;20028;-76
2021/04/25 02:03:27;;;;;;;17.33;8.32;;;6.10;68.90;;;;;;5091557;28;20036;-76
2021/04/25 02:05:53;;;;;;;21.45;8.60;;;6.10;69.10;;;;;;5065531;28;20028;-76
2021/04/25 02:08:19;;;;;;;15.75;8.30;;;6.00;69.30;;;;;;5071133;28;20078;-76
2021/04/25 02:10:45;;;;;;;17.15;8.45;;;6.00;69.30;;;;;;5080063;28;20488;-76
2021/04/25 02:13:11;;;;;;;20.33;9.40;;;6.00;69.30;;;;;;5092816;28;20052;-76
2021/04/25 02:15:37;;;;;;;17.05;8.65;;;6.00;69.40;;;;;;5092231;28;20031;-76
2021/04/25 02:18:03;;;;;;;16.02;8.48;;;6.00;69.40;;;;;;5092436;28;20476;-76
2021/04/25 02:20:30;;;;;;;15.70;9.05;;;6.00;69.30;;;;;;5092294;28;20112;-76
2021/04/25 02:22:56;;;;;;;15.70;7.93;;;6.00;69.40;;;;;;5092593;28;20055;-76
2021/04/25 02:25:23;;;;;;;16.00;8.63;;;6.00;69.50;;;;;;5092261;28;20025;-76
2021/04/25 02:27:49;;;;;;;13.57;8.20;;;5.90;69.60;;;;;;5090757;28;20111;-76
2021/04/25 02:30:20;;;;;;;15.45;8.65;;;5.90;69.80;;;;;;5090342;28;20114;-76
2021/04/25 02:32:47;;;;;;;14.75;8.60;;;5.80;70.10;;;;;;5092362;28;20081;-76
2021/04/25 02:35:15;;;;;;;18.83;8.77;;;5.80;70.10;;;;;;5092040;28;20031;-76
2021/04/25 02:37:41;;;;;;;18.67;8.73;;;5.80;70.20;;;;;;5090954;28;20066;-76
2021/04/25 02:40:11;;;;;;;17.85;8.75;;;5.80;70.40;;;;;;5092121;28;20029;-76
2021/04/25 02:42:38;;;;;;;15.60;8.88;;;5.80;70.50;;;;;;5090893;28;20074;-76
2021/04/25 02:45:04;;;;;;;16.30;8.35;;;5.80;70.50;;;;;;5090420;28;20085;-76
2021/04/25 02:47:30;;;;;;;15.00;8.35;;;5.80;70.50;;;;;;5090472;28;20047;-76
2021/04/25 02:49:56;;;;;;;15.20;8.15;;;5.70;70.70;;;;;;5090776;28;20082;-74
2021/04/25 02:52:25;;;;;;;13.75;8.07;;;5.70;71.00;;;;;;5092570;28;20484;-74
2021/04/25 02:54:54;;;;;;;18.33;9.05;;;5.60;71.20;;;;;;5094757;28;20496;-74
2021/04/25 02:57:21;;;;;;;17.40;9.57;;;5.60;71.50;;;;;;5095988;28;20543;-75
2021/04/25 02:59:46;;;;;;;14.30;8.00;;;5.60;71.50;;;;;;5094346;28;20143;-74
2021/04/25 03:02:12;;;;;;;17.30;8.73;;;5.60;71.70;;;;;;5094616;28;20074;-74
2021/04/25 03:04:38;;;;;;;21.25;9.05;;;5.50;71.80;;;;;;5094278;28;20533;-74
2021/04/25 03:07:03;;;;;;;15.65;9.10;;;5.50;71.80;;;;;;5094719;28;20028;-74
2021/04/25 03:09:29;;;;;;;16.55;8.70;;;5.50;71.70;;;;;;5074099;28;20378;-74
2021/04/25 03:11:54;;;;;;;16.65;8.93;;;5.50;71.80;;;;;;5092020;28;20059;-74
2021/04/25 03:14:20;;;;;;;17.40;8.63;;;5.50;71.80;;;;;;5094396;28;20103;-74
2021/04/25 03:16:46;;;;;;;16.15;8.52;;;5.50;71.90;;;;;;5094213;28;20028;-74
2021/04/25 03:19:11;;;;;;;16.27;9.05;;;5.50;72.00;;;;;;5093947;28;20032;-74
2021/04/25 03:21:37;;;;;;;15.77;8.25;;;5.40;72.00;;;;;;5077658;28;20024;-75
2021/04/25 03:24:03;;;;;;;17.05;8.48;;;5.40;72.10;;;;;;5077397;28;20028;-74
2021/04/25 03:26:29;;;;;;;17.52;9.00;;;5.40;72.30;;;;;;5093623;28;20032;-74
2021/04/25 03:28:55;;;;;;;15.50;8.40;;;5.40;72.30;;;;;;5073920;28;20043;-74
2021/04/25 03:31:20;;;;;;;15.20;8.50;;;5.40;72.30;;;;;;5091920;28;20400;-74
2021/04/25 03:33:46;;;;;;;18.90;8.55;;;5.40;72.30;;;;;;5076719;28;20115;-74
2021/04/25 03:36:12;;;;;;;15.98;8.52;;;5.40;73.00;;;;;;5094092;28;20020;-74
2021/04/25 03:38:37;;;;;;;19.65;8.80;;;5.30;72.50;;;;;;5094989;28;20035;-74
2021/04/25 03:41:03;;;;;;;13.70;8.02;;;5.30;72.70;;;;;;5095166;28;20055;-74
2021/04/25 03:43:28;;;;;;;25.52;9.85;;;5.30;72.80;;;;;;5095157;28;20092;-74
2021/04/25 03:45:54;;;;;;;19.08;9.32;;;5.20;72.90;;;;;;5093866;28;20036;-74
2021/04/25 03:48:20;;;;;;;19.05;9.23;;;5.20;72.90;;;;;;5095008;28;20436;-74
2021/04/25 03:50:45;;;;;;;14.88;8.32;;;5.20;73.00;;;;;;5093677;28;20036;-74
2021/04/25 03:53:11;;;;;;;20.40;8.77;;;5.20;73.20;;;;;;5076407;28;20055;-74
2021/04/25 03:55:36;;;;;;;20.35;9.20;;;5.20;73.20;;;;;;5093532;28;20013;-74
2021/04/25 03:58:03;;;;;;;22.48;9.32;;;5.20;73.20;;;;;;5095154;28;20469;-74
2021/04/25 04:00:29;;;;;;;17.55;9.75;;;5.20;73.20;;;;;;5093542;28;20074;-74
2021/04/25 04:02:55;;;;;;;17.65;9.52;;;5.20;73.20;;;;;;5076597;28;20028;-74
2021/04/25 04:05:20;;;;;;;20.27;9.70;;;5.10;73.30;;;;;;5093211;28;20077;-74
2021/04/25 04:07:46;;;;;;;15.18;9.30;;;5.10;73.30;;;;;;5072990;28;20032;-74
2021/04/25 04:10:12;;;;;;;21.58;9.57;;;5.10;73.40;;;;;;5078772;28;20032;-75
2021/04/25 04:12:38;;;;;;;21.75;9.60;;;5.10;73.50;;;;;;5094487;28;20419;-74
2021/04/25 04:15:05;;;;;;;24.77;9.75;;;5.00;73.50;;;;;;5094535;28;20024;-74
2021/04/25 04:17:31;;;;;;;20.80;9.43;;;5.10;73.50;;;;;;5093247;28;20035;-74
2021/04/25 04:19:57;;;;;;;17.30;9.73;;;5.00;73.50;;;;;;5094404;28;20028;-74
2021/04/25 04:22:22;;;;;;;20.55;9.00;;;5.00;73.60;;;;;;5092846;28;20032;-74
2021/04/25 04:24:48;;;;;;;22.33;9.75;;;5.00;73.60;;;;;;5094108;28;20110;-74
2021/04/25 04:27:13;;;;;;;19.63;10.45;;;5.00;73.80;;;;;;5093983;28;20036;-74
2021/04/25 04:29:39;;;;;;;19.90;9.63;;;5.00;73.80;;;;;;5094229;28;20032;-74
2021/04/25 04:32:05;;;;;;;17.05;9.18;;;5.00;73.90;;;;;;5092548;28;20075;-74
2021/04/25 04:34:31;;;;;;;20.65;9.65;;;5.00;73.90;;;;;;5092365;28;20433;-74
2021/04/25 04:36:56;;;;;;;24.50;9.55;;;5.10;74.10;;;;;;5075686;28;20032;-74
2021/04/25 04:39:22;;;;;;;22.05;10.48;;;5.00;74.20;;;;;;5092014;28;20032;-74
2021/04/25 04:41:48;;;;;;;21.83;10.10;;;5.10;74.20;;;;;;5091818;28;20024;-74
2021/04/25 04:44:14;;;;;;;25.10;9.88;;;5.20;74.00;;;;;;5092041;28;20089;-74
2021/04/25 04:46:39;;;;;;;22.23;10.25;;;5.30;74.00;;;;;;5075421;28;20038;-74
2021/04/25 04:49:05;;;;;;;18.48;9.73;;;5.30;74.00;;;;;;5092314;28;20119;-74
2021/04/25 04:51:31;;;;;;;15.40;8.68;;;5.30;74.00;;;;;;5092119;28;20055;-74
2021/04/25 04:53:56;;;;;;;17.38;9.30;;;5.30;74.00;;;;;;5093423;28;20035;-74
2021/04/25 04:56:22;;;;;;;16.05;9.23;;;5.40;74.40;;;;;;5093414;28;20038;-74
2021/04/25 04:58:47;;;;;;;20.35;9.63;;;5.40;73.70;;;;;;5091993;28;20063;-74
2021/04/25 05:01:13;;;;;;;18.75;10.40;;;5.50;73.60;;;;;;5074655;28;20101;-74
2021/04/25 05:03:39;;;;;;;16.70;9.50;;;5.50;73.50;;;;;;5066656;28;20042;-74
2021/04/25 05:06:04;;;;;;;19.25;8.65;;;5.50;73.50;;;;;;5082787;28;20361;-74
2021/04/25 05:08:30;;;;;;;18.00;9.40;;;5.60;73.40;;;;;;5071819;28;20484;-74
2021/04/25 05:10:56;;;;;;;22.20;9.80;;;5.70;73.10;;;;;;5055627;28;20036;-74
2021/04/25 05:13:21;;;;;;;20.50;9.77;;;5.70;73.20;;;;;;5085882;28;20039;-74
2021/04/25 05:15:47;;;;;;;17.73;9.43;;;5.70;73.40;;;;;;5091840;28;20055;-74
2021/04/25 05:18:12;;;;;;;22.20;10.07;;;5.70;73.60;;;;;;5092126;28;20469;-74
2021/04/25 05:20:38;;;;;;;18.77;9.50;;;5.80;73.60;;;;;;5092258;28;20350;-74
2021/04/25 05:23:04;;;;;;;15.07;8.45;;;5.80;73.40;;;;;;5091786;28;20024;-74
2021/04/25 05:25:30;;;;;;;16.90;8.75;;;5.80;73.30;;;;;;5092188;28;20025;-74
2021/04/25 05:27:56;;;;;;;17.73;8.45;;;5.80;73.20;;;;;;5091859;28;20447;-74
2021/04/25 05:30:22;;;;;;;18.42;8.65;;;5.90;73.10;;;;;;5091235;28;20028;-74
2021/04/25 05:32:48;;;;;;;17.60;8.80;;;6.00;73.10;;;;;;5091500;28;20044;-74
2021/04/25 05:35:14;;;;;;;19.17;8.85;;;6.00;73.10;;;;;;5093440;28;20024;-74
2021/04/25 05:37:39;;;;;;;15.05;7.75;;;6.10;73.10;;;;;;5093138;28;20023;-74
2021/04/25 05:40:07;;;;;;;17.60;7.55;;;6.20;72.90;;;;;;5093248;28;20031;-74
2021/04/25 05:42:32;;;;;;;14.45;7.80;;;6.20;72.90;;;;;;5091609;28;20089;-74
2021/04/25 05:44:58;;;;;;;17.33;7.60;;;6.30;72.50;;;;;;5092069;28;20036;-74
2021/04/25 05:47:24;;;;;;;15.93;8.18;;;6.40;72.30;;;;;;5091589;28;20027;-74
2021/04/25 05:49:49;;;;;;;13.38;7.85;;;6.40;72.20;;;;;;5092936;28;20374;-74
2021/04/25 05:52:15;;;;;;;14.57;7.15;;;6.50;72.10;;;;;;5091933;28;20032;-74
2021/04/25 05:54:41;;;;;;;17.73;8.55;;;6.50;71.90;;;;;;5091691;28;20071;-74
2021/04/25 05:57:08;;;;;;;14.73;7.70;;;6.60;71.70;;;;;;5071875;28;20033;-74
2021/04/25 05:59:37;;;;;;;14.43;6.75;;;6.60;71.40;;;;;;5091853;28;20097;-74
2021/04/25 06:02:04;;;;;;;15.30;7.78;;;6.60;71.40;;;;;;5092924;28;20030;-74
2021/04/25 06:04:30;;;;;;;20.60;7.85;;;6.70;71.20;;;;;;5095450;28;20134;-74
2021/04/25 06:06:56;;;;;;;16.33;7.75;;;6.70;71.10;;;;;;5068594;28;20037;-74
2021/04/25 06:09:22;;;;;;;14.70;7.22;;;6.70;71.10;;;;;;5092566;28;20032;-74
2021/04/25 06:11:48;;;;;;;17.20;7.07;;;6.80;71.70;;;;;;5092387;28;20027;-74
2021/04/25 06:14:14;;;;;;;20.27;7.07;;;6.90;70.50;;;;;;5092709;28;20024;-74
2021/04/25 06:16:39;;;;;;;13.75;6.95;;;6.90;70.30;;;;;;5092370;28;20055;-74
2021/04/25 06:19:05;;;;;;;15.32;6.85;;;7.00;69.80;;;;;;5091507;28;20082;-74
2021/04/25 06:21:31;;;;;;;15.00;6.38;;;7.00;69.80;;;;;;5092859;28;20071;-74
2021/04/25 06:23:57;;;;;;;13.73;6.13;;;7.10;69.30;;;;;;5091483;28;20119;-74
2021/04/25 06:26:22;;;;;;;12.85;6.13;;;7.10;69.10;;;;;;5092903;28;20115;-74
2021/04/25 06:28:49;;;;;;;13.77;6.63;;;7.10;69.10;;;;;;5094748;28;20036;-74
2021/04/25 06:31:14;;;;;;;16.73;5.85;;;7.10;68.80;;;;;;5096248;28;20051;-74
2021/04/25 06:33:40;;;;;;;9.55;5.50;;;7.20;68.20;;;;;;5077908;28;20024;-74
2021/04/25 06:36:06;;;;;;;11.85;5.28;;;7.20;67.70;;;;;;5095544;28;20048;-74
2021/04/25 06:38:32;;;;;;;10.13;4.97;;;7.30;67.20;;;;;;5096355;28;20395;-74
2021/04/25 06:40:57;;;;;;;13.55;5.78;;;7.30;66.70;;;;;;5094660;28;20127;-74
2021/04/25 06:43:23;;;;;;;10.73;4.47;;;7.30;66.60;;;;;;5095229;28;20020;-74
2021/04/25 06:45:49;;;;;;;11.35;5.05;;;7.40;66.40;;;;;;5094533;28;20419;-74
2021/04/25 06:48:15;;;;;;;11.27;4.63;;;7.30;65.00;;;;;;5096094;28;20028;-74
2021/04/25 06:50:42;;;;;;;13.32;5.10;;;7.40;64.30;;;;;;5094612;28;20028;-74
2021/04/25 06:53:08;;;;;;;10.18;4.32;;;7.40;63.60;;;;;;5095883;28;20115;-74
2021/04/25 06:55:33;;;;;;;12.23;4.40;;;7.40;63.30;;;;;;5077394;28;20047;-74
2021/04/25 06:57:59;;;;;;;12.02;4.80;;;7.40;63.70;;;;;;5096090;28;20032;-74
2021/04/25 07:00:26;;;;;;;10.68;5.55;;;7.50;63.10;;;;;;5094302;28;20384;-74
2021/04/25 07:02:54;;;;;;;10.98;4.47;;;7.50;62.70;;;;;;5093875;28;20031;-74
2021/04/25 07:05:19;;;;;;;14.05;3.75;;;7.60;62.80;;;;;;5094004;28;20057;-74
2021/04/25 07:07:45;;;;;;;11.77;3.90;;;7.60;62.50;;;;;;5094437;28;20058;-74
2021/04/25 07:10:11;;;;;;;11.05;3.88;;;7.70;61.80;;;;;;5100473;28;20481;-74
2021/04/25 07:12:37;;;;;;;9.85;4.28;;;7.70;60.20;;;;;;5095853;28;20469;-74
2021/04/25 07:15:04;;;;;;;8.10;3.80;;;7.70;60.50;;;;;;5094269;28;20036;-74
2021/04/25 07:17:30;;;;;;;12.88;4.53;;;7.70;60.60;;;;;;5094392;28;20050;-73
2021/04/25 07:19:56;;;;;;;8.35;3.33;;;7.60;59.70;;;;;;5095279;28;20107;-74
2021/04/25 07:22:21;;;;;;;9.75;4.18;;;7.70;59.60;;;;;;5060531;28;20040;-75
2021/04/25 07:24:49;;;;;;;10.13;3.58;;;7.60;59.90;;;;;;5094332;28;20028;-74
2021/04/25 07:27:15;;;;;;;8.77;3.83;;;7.60;59.70;;;;;;5074062;28;20090;-76
2021/04/25 07:29:40;;;;;;;8.73;3.47;;;7.70;59.70;;;;;;5072408;28;20037;-76
2021/04/25 07:32:06;;;;;;;8.70;3.70;;;7.70;58.90;;;;;;5088271;28;20404;-75
2021/04/25 07:34:32;;;;;;;5.35;3.40;;;7.70;58.80;;;;;;5094040;28;20113;-75
2021/04/25 07:36:58;;;;;;;8.50;3.60;;;7.70;58.70;;;;;;5094885;28;20040;-76
2021/04/25 07:39:24;;;;;;;13.27;3.42;;;7.70;59.00;;;;;;5094356;28;20035;-76
2021/04/25 07:41:49;;;;;;;10.57;3.60;;;7.80;58.90;;;;;;5092958;28;20032;-76
2021/04/25 07:44:16;;;;;;;12.68;2.88;;;7.80;58.80;;;;;;5093395;28;20032;-76
2021/04/25 07:46:42;;;;;;;8.27;2.97;;;7.90;58.70;;;;;;5092007;28;20036;-75
2021/04/25 07:49:08;;;;;;;8.40;2.88;;;8.00;58.10;;;;;;5094501;28;20365;-76
2021/04/25 07:51:34;;;;;;;8.57;3.20;;;8.00;58.10;;;;;;5093008;28;20032;-75
2021/04/25 07:53:59;;;;;;;10.27;3.30;;;8.10;58.50;;;;;;5090512;28;20535;-76
2021/04/25 07:56:26;;;;;;;9.23;3.10;;;8.20;58.50;;;;;;5092866;28;20400;-75
2021/04/25 07:58:52;;;;;;;7.35;2.85;;;8.20;57.80;;;;;;5092498;28;20111;-76
2021/04/25 08:01:18;;;;;;;8.48;2.70;;;8.20;58.10;;;;;;5097811;28;20490;-76
2021/04/25 08:03:44;;;;;;;8.57;2.83;;;8.20;58.30;;;;;;5103295;28;20046;-76
2021/04/25 08:06:09;;;;;;;17.00;2.88;;;8.30;58.30;;;;;;5094155;28;20489;-76
2021/04/25 08:08:35;;;;;;;9.93;2.90;;;8.50;56.80;;;;;;5101381;28;20031;-76
2021/04/25 08:11:01;;;;;;;6.43;2.35;;;8.60;56.60;;;;;;5113240;28;20028;-76
2021/04/25 08:13:26;;;;;;;7.30;2.22;;;8.70;56.50;;;;;;5095711;28;20024;-75
2021/04/25 08:15:53;;;;;;;10.80;2.38;;;8.70;55.80;;;;;;5091846;28;20035;-76
2021/04/25 08:18:19;;;;;;;8.60;2.47;;;8.70;56.20;;;;;;5093590;28;20115;-76
2021/04/25 08:20:44;;;;;;;14.93;3.55;;;8.60;55.70;;;;;;5095384;28;20120;-76
2021/04/25 08:23:10;;;;;;;11.98;2.15;;;8.60;55.80;;;;;;5103373;28;20480;-76
2021/04/25 08:25:36;;;;;;;8.45;2.30;;;8.60;56.20;;;;;;5092547;28;20030;-76
2021/04/25 08:28:01;;;;;;;9.57;2.33;;;8.70;55.90;;;;;;5092767;28;20028;-76
2021/04/25 08:30:28;;;;;;;5.43;2.30;;;8.80;55.60;;;;;;5093353;28;20119;-76
2021/04/25 08:32:53;;;;;;;9.05;2.30;;;8.70;55.60;;;;;;5091045;28;20050;-75
2021/04/25 08:35:19;;;;;;;10.40;2.40;;;8.80;55.50;;;;;;5073607;28;20037;-77
2021/04/25 08:37:46;;;;;;;5.13;2.08;;;8.80;55.60;;;;;;5102760;28;20111;-76
2021/04/25 08:40:12;;;;;;;7.45;2.33;;;8.90;55.50;;;;;;5108970;28;20531;-76
2021/04/25 08:42:38;;;;;;;5.47;1.85;;;9.00;55.20;;;;;;5106478;28;20112;-76
2021/04/25 08:45:05;;;;;;;13.25;2.33;;;9.00;55.30;;;;;;5107830;28;20473;-76
2021/04/25 08:47:31;;;;;;;8.77;2.30;;;9.10;54.90;;;;;;5108124;28;20024;-76
2021/04/25 08:50:03;;;;;;;7.43;2.22;;;9.20;54.50;;;;;;5103711;28;20027;-76
2021/04/25 08:52:29;;;;;;;12.38;2.28;;;9.10;54.40;;;;;;5084648;28;21545;-75
2021/04/25 08:54:56;;;;;;;7.13;2.10;;;9.10;54.30;;;;;;5101314;28;20035;-76
2021/04/25 08:57:22;;;;;;;9.95;2.53;;;9.10;54.80;;;;;;5103211;28;20066;-76
2021/04/25 08:59:48;;;;;;;9.02;2.25;;;9.10;54.90;;;;;;5103047;28;20536;-76
2021/04/25 09:02:13;;;;;;;5.88;1.92;;;9.20;54.90;;;;;;5081892;28;20046;-76
2021/04/25 09:04:39;;;;;;;9.18;2.30;;;9.20;54.50;;;;;;5099671;28;20071;-76
2021/04/25 09:07:06;;;;;;;10.52;2.30;;;9.20;54.00;;;;;;5103785;28;20038;-76
2021/04/25 09:09:52;;;;;;;9.75;2.42;;;9.30;53.80;;;;;;5103509;28;20030;-76
2021/04/25 09:12:40;;;;;;;9.05;2.38;;;9.40;53.60;;;;;;5109187;28;20030;-76
2021/04/25 09:15:27;;;;;;;12.63;2.22;;;9.40;53.40;;;;;;5108644;28;20028;-76
2021/04/25 09:17:59;;;;;;;7.15;2.22;;;9.40;53.60;;;;;;5094935;28;20063;-76
2021/04/25 09:20:46;;;;;;;6.70;2.33;;;9.50;54.00;;;;;;5108764;28;20035;-76
2021/04/25 09:23:30;;;;;;;10.18;2.05;;;9.60;53.60;;;;;;5106882;28;20044;-76
2021/04/25 09:25:57;;;;;;;5.40;1.48;;;9.70;53.30;;;;;;5107837;27;20116;-76
2021/04/25 09:28:23;;;;;;;10.75;1.80;;;9.70;53.30;;;;;;5105814;28;20032;-76
2021/04/25 09:30:55;;;;;;;8.43;2.05;;;9.90;53.00;;;;;;5100502;28;20098;-76
2021/04/25 09:33:22;;;;;;;7.93;1.80;;;10.10;52.10;;;;;;5102546;28;20456;-77
2021/04/25 09:35:48;;;;;;;9.15;2.00;;;10.30;52.30;;;;;;5105225;28;20118;-77
2021/04/25 09:38:14;;;;;;;5.47;2.15;;;10.50;50.90;;;;;;5105197;28;20835;-78
2021/04/25 09:40:46;;;;;;;7.32;1.88;;;10.70;51.00;;;;;;5108115;28;20016;-78
2021/04/25 09:43:19;;;;;;;7.93;2.50;;;11.10;50.90;;;;;;5095183;28;20039;-81
2021/04/25 09:45:45;;;;;;;6.35;2.10;;;11.40;50.30;;;;;;5093046;28;20073;-78
2021/04/25 09:48:31;;;;;;;7.45;2.00;;;11.70;48.80;;;;;;5092748;28;20024;-78
2021/04/25 09:51:22;;;;;;;9.35;2.20;;;12.10;48.50;;;;;;5092449;28;20480;-78
2021/04/25 09:53:57;;;;;;;7.65;1.92;;;12.40;48.40;;;;;;5082528;28;20028;-78
2021/04/25 09:56:31;;;;;;;8.63;2.10;;;12.50;47.50;;;;;;5091029;28;20027;-78
2021/04/25 09:58:57;;;;;;;6.63;1.95;;;12.60;47.00;;;;;;5090065;28;20036;-78
2021/04/25 10:01:26;;;;;;;9.10;2.00;;;12.70;47.60;;;;;;5092647;28;20050;-78
2021/04/25 10:03:52;;;;;;;6.93;1.98;;;12.90;47.00;;;;;;5096821;28;20473;-78
2021/04/25 10:06:19;;;;;;;7.85;1.88;;;13.00;46.50;;;;;;5096897;28;20032;-78
2021/04/25 10:08:49;;;;;;;8.40;2.10;;;12.70;46.50;;;;;;5096912;28;20064;-78
2021/04/25 10:11:15;;;;;;;5.70;1.80;;;12.50;46.40;;;;;;5095628;28;20020;-78
2021/04/25 10:13:45;;;;;;;10.18;2.22;;;12.40;46.70;;;;;;5095461;28;20032;-78
2021/04/25 10:16:16;;;;;;;12.88;1.70;;;12.50;46.70;;;;;;5096259;28;20025;-78
2021/04/25 10:18:42;;;;;;;10.70;2.20;;;12.60;46.90;;;;;;5096788;28;20431;-78
2021/04/25 10:21:08;;;;;;;7.75;1.90;;;12.80;46.30;;;;;;5095580;28;20085;-78
2021/04/25 10:23:34;;;;;;;6.38;2.08;;;12.90;46.70;;;;;;5095361;28;20039;-78
2021/04/25 10:26:01;;;;;;;6.70;1.80;;;13.10;46.00;;;;;;5078051;28;20035;-79
2021/04/25 10:28:42;;;;;;;6.47;2.10;;;13.10;45.10;;;;;;5074967;28;20032;-78
2021/04/25 10:31:13;;;;;;;7.03;2.17;;;12.80;45.80;;;;;;5093020;28;20107;-78
2021/04/25 10:34:03;;;;;;;9.52;2.10;;;12.80;46.30;;;;;;5095556;28;20114;-78
2021/04/25 10:36:44;;;;;;;6.15;1.70;;;13.00;46.40;;;;;;5092616;28;20101;-78
2021/04/25 10:39:38;;;;;;;11.35;2.13;;;13.20;45.20;;;;;;5094433;28;20430;-77
2021/04/25 10:42:28;;;;;;;4.38;1.55;;;13.40;45.80;;;;;;5080871;28;20028;-77
2021/04/25 10:47:28;;;;;;;8.15;2.20;;;13.50;44.90;;;;;;5095735;28;20035;-77
2021/04/25 10:49:55;;;;;;;9.57;2.13;;;13.40;44.20;;;;;;5085419;28;20024;-78
2021/04/25 10:52:23;;;;;;;7.90;1.80;;;13.40;45.20;;;;;;5094825;28;20142;-77
2021/04/25 10:55:15;;;;;;;7.47;1.75;;;13.50;44.90;;;;;;5093927;28;20059;-78
2021/04/25 11:03:12;;;;;;;3.33;1.50;;;14.00;44.50;;;;;;5094705;28;20516;-78
2021/04/25 11:05:39;;;;;;;9.93;1.88;;;14.20;43.70;;;;;;5094360;28;20027;-78
2021/04/25 11:08:13;;;;;;;10.75;2.05;;;14.20;43.30;;;;;;5093981;28;20082;-78
2021/04/25 11:10:52;;;;;;;6.97;1.85;;;14.20;43.70;;;;;;5093836;28;20115;-78
2021/04/25 11:13:36;;;;;;;11.48;2.00;;;14.20;43.80;;;;;;5094559;28;20024;-78
2021/04/25 11:16:08;;;;;;;8.85;2.00;;;14.20;42.70;;;;;;5093481;28;20028;-78
2021/04/25 11:19:02;;;;;;;8.93;2.03;;;14.10;43.00;;;;;;5094300;28;20117;-77
2021/04/25 11:21:32;;;;;;;5.43;1.98;;;14.10;44.50;;;;;;5098293;28;20092;-77
2021/04/25 11:24:06;;;;;;;9.10;1.77;;;14.10;43.00;;;;;;5092780;28;20027;-77
2021/04/25 11:26:41;;;;;;;9.32;1.90;;;14.30;42.80;;;;;;5080036;28;20027;-77
2021/04/25 11:29:43;;;;;;;7.63;2.00;;;14.40;42.60;;;;;;5092548;28;20036;-78
2021/04/25 11:32:23;;;;;;;6.93;2.00;;;14.30;42.30;;;;;;5093541;28;20016;-78
2021/04/25 11:34:56;;;;;;;10.05;2.17;;;14.30;43.10;;;;;;5093736;28;20119;-78
2021/04/25 11:37:24;;;;;;;7.82;2.17;;;14.40;43.10;;;;;;5093278;28;20036;-78
2021/04/25 11:39:54;;;;;;;8.15;1.88;;;14.60;42.40;;;;;;5095043;28;20035;-78
2021/04/25 11:42:37;;;;;;;5.55;1.80;;;14.60;42.40;;;;;;5093287;28;20028;-78
2021/04/25 11:45:12;;;;;;;8.90;1.70;;;14.60;41.90;;;;;;5094564;28;20020;-78
2021/04/25 11:47:54;;;;;;;8.38;1.80;;;14.70;42.40;;;;;;5090884;28;20085;-78
2021/04/25 11:50:26;;;;;;;5.60;2.17;;;15.00;43.10;;;;;;5094346;28;20076;-77
2021/04/25 11:52:51;;;;;;;7.15;1.80;;;15.10;42.30;;;;;;5093698;28;20080;-78
2021/04/25 11:55:18;;;;;;;7.45;1.70;;;15.20;41.20;;;;;;5093399;28;20032;-78
2021/04/25 11:57:48;;;;;;;8.23;2.22;;;15.30;41.00;;;;;;5094241;28;20031;-78
2021/04/25 12:00:23;;;;;;;10.32;2.20;;;15.40;41.50;;;;;;5094104;28;20016;-77
2021/04/25 12:02:54;;;;;;;10.32;2.30;;;15.50;41.00;;;;;;5094319;28;20089;-77
2021/04/25 12:05:28;;;;;;;7.95;1.73;;;15.50;40.40;;;;;;5094305;28;20032;-78
2021/04/25 12:07:59;;;;;;;7.25;1.67;;;15.40;41.20;;;;;;5066329;28;20059;-76
2021/04/25 12:10:38;;;;;;;11.68;1.73;;;15.30;41.10;;;;;;5067840;28;20401;-76
2021/04/25 12:13:08;;;;;;;;;;;15.30;40.90;;;;;;5094733;28;20020;-75
2021/04/25 12:16:00;;;;;;;6.10;1.63;;;15.30;41.50;;;;;;5092638;28;20373;-79
2021/04/25 12:18:29;;;;;;;7.32;2.28;;;15.30;40.60;;;;;;5076508;28;20029;-81
2021/04/25 12:21:09;;;;;;;7.75;1.98;;;15.20;41.50;;;;;;5094584;28;20517;-81
2021/04/25 12:23:53;;;;;;;9.63;1.70;;;15.40;40.60;;;;;;5094055;28;20028;-80
2021/04/25 12:26:21;;;;;;;10.63;2.00;;;15.60;40.50;;;;;;5094106;28;20016;-81
2021/04/25 12:28:50;;;;;;;8.60;1.80;;;15.90;39.90;;;;;;5093927;28;20166;-81
2021/04/25 12:31:27;;;;;;;10.38;1.90;;;16.20;39.70;;;;;;5091751;28;20028;-80
2021/04/25 12:33:55;;;;;;;12.00;2.00;;;16.30;39.80;;;;;;5073716;28;20044;-81
2021/04/25 12:36:23;;;;;;;6.20;1.38;;;16.50;40.00;;;;;;5074585;28;20031;-80
2021/04/25 12:39:04;;;;;;;9.90;2.07;;;16.80;40.00;;;;;;5064514;28;20063;-80
2021/04/25 12:41:42;;;;;;;6.22;1.45;;;17.00;39.00;;;;;;5092789;28;20499;-81
2021/04/25 12:44:07;;;;;;;11.27;1.83;;;17.20;38.20;;;;;;5094205;28;20495;-83
2021/04/25 12:46:33;;;;;;;7.88;2.15;;;17.30;38.00;;;;;;5094098;28;20028;-77
2021/04/25 12:49:00;;;;;;;9.32;1.67;;;17.30;36.30;;;;;;5092984;28;20462;-78
2021/04/25 12:51:52;;;;;;;8.95;1.90;;;17.00;36.60;;;;;;5094187;28;20024;-78
2021/04/25 12:54:19;;;;;;;13.15;2.15;;;16.80;36.90;;;;;;5089225;28;20499;-78
2021/04/25 12:56:56;;;;;;;7.35;1.65;;;16.50;38.00;;;;;;5094081;28;20020;-78
2021/04/25 12:59:31;;;;;;;11.38;1.88;;;16.50;38.90;;;;;;5092980;28;20036;-78
2021/04/25 13:01:57;;;;;;;8.57;1.40;;;16.50;38.10;;;;;;5092573;28;20451;-78